Weather observations for the past three days for
Haines Memorial Airport
Imperial (Metric)
Date Time (edt) Wind (mph) Vis. (mi.) Weather Sky Cond. Temperature (ºF) Relative Humidity Wind Chill (°F) Heat Index (°F) Pressure Precipitation (in)
Air Dwpt 6 hour altimeter (in) sea level (mb) 1 hr 3 hr 6 hr
Max. Min.
08 08:15 SW 5 2.50 Fog/Mist SCT001 42.8 42.8 100% 41 29.88 0.0
08 07:55 S 3 0.75 Fog/Mist BKN001 42.8 41 42.8 35.1 93% 29.87 0.0
08 07:35 SW 3 0.50 Fog VV005 39.2 37.4 93% 29.87 0.0
08 07:15 S 3 0.15 Fog VV000 35.6 35.6 100% 29.86 0.0
08 06:55 Calm 0.15 Fog BKN001 35.6 35.6 100% 29.86 0.0
08 06:35 S 2 0.00 NULL NULL 35.6 35.6 100% 29.86 0.0
08 06:15 SW 3 0.15 Fog VV000 37.4 35.6 93% 29.86 0.0
08 05:55 Calm 0.15 Fog VV000 35.6 35.6 100% 29.86 0.0
08 05:35 Calm 0.15 Fog VV000 37.4 37.4 100% 29.86 0.0
08 05:15 S 1 0.25 Fog VV002 37.4 37.4 100% 29.86 0.0
08 04:55 NW 1 0.25 Fog VV002 39.2 37.4 93% 29.86 0.0
08 04:35 SE 1 0.25 Fog VV002 39.2 39.2 100% 29.86 0.0
08 04:15 E 1 0.50 Fog VV005 39.2 39.2 100% 29.86 0.0
08 03:55 NE 1 3.00 Fog/Mist SCT100 39.2 39.2 100% 29.86 0.0
08 03:35 N 5 1.50 Fog/Mist OVC100 39.2 39.2 100% 36 29.86 0.0
08 03:15 Calm 0.50 Fog OVC100 39.2 39.2 100% 29.86 0.0
08 02:55 E 1 1.25 Fog/Mist CLR 41 41 100% 29.87 0.0
08 02:35 SW 2 5.00 Fog/Mist CLR 41 41 100% 29.87 0.0
08 02:15 SW 2 10.00 A Few Clouds FEW075 41 39.2 93% 29.88 0.0
08 01:55 SW 3 10.00 A Few Clouds FEW075 42.8 41 52.9 41.5 93% 29.88 0.0
08 01:35 SW 5 10.00 Fair CLR 42.8 41 93% 41 29.88 0.0
08 01:15 SW 5 10.00 Fair CLR 42.8 41 93% 41 29.88 0.0
08 00:55 SW 6 10.00 Fair CLR 42.8 41 93% 40 29.88 0.0
08 00:35 S 5 10.00 Fair CLR 42.8 41 93% 41 29.87 0.0
08 00:15 S 7 10.00 Fair CLR 42.8 41 93% 39 29.87 0.0
07 23:55 S 6 10.00 Fair CLR 41 41 100% 38 29.87 0.0
07 23:35 S 3 10.00 Fair CLR 42.8 41 93% 29.87 0.0
07 23:15 S 5 10.00 Fair CLR 42.8 41 93% 41 29.87 0.0
07 22:55 S 5 10.00 A Few Clouds FEW090 42.8 41 93% 41 29.87 0.0
07 22:35 S 3 10.00 Partly Cloudy SCT090 44.6 41 87% 29.87 0.0
07 22:15 S 3 10.00 Fair CLR 44.6 42.8 93% 29.87 0.0
07 21:55 SW 3 10.00 Fair CLR 46.4 42.8 87% 29.87 0.0
07 21:35 SW 6 10.00 Fair CLR 46.4 42.8 87% 44 29.87 0.0
07 21:15 SW 5 10.00 Partly Cloudy FEW070 FEW080 SCT110 46.4 42.8 87% 45 29.87 0.0
07 20:55 S 13 3.00 Light Rain Haze SCT042 BKN070 OVC080 46.4 42.8 87% 41 29.86 0.0
07 20:35 SW 13 10.00 Light Rain BKN044 OVC050 51.8 39.2 62% 29.86 0.0
07 20:15 SW 12 G 16 10.00 Overcast BKN048 BKN060 OVC075 51.8 39.2 62% 29.86 0.0
07 19:55 SW 7 10.00 Overcast BKN050 OVC070 51.8 39.2 58.1 52.9 62% 29.85 0.0
07 19:35 SW 6 G 16 10.00 Overcast SCT050 BKN055 OVC095 53.6 37.4 54% 29.85 0.0
07 19:15 W 7 10.00 Mostly Cloudy BKN095 55.4 35.6 47% 29.85 0.0
07 18:55 W 9 10.00 A Few Clouds FEW060 FEW070 55.4 33.8 44% 29.85 0.0
07 18:35 SW 18 G 23 10.00 Mostly Cloudy BKN060 BKN070 57.2 35.6 44% 29.85 0.0
07 18:15 SW 10 G 18 10.00 Overcast OVC060 55.4 33.8 44% 29.85 0.0
07 17:55 SW 13 10.00 Overcast BKN070 OVC080 55.4 33.8 44% 29.85 0.0
07 17:35 SW 9 10.00 Overcast BKN070 OVC085 55.4 32 41% 29.86 0.0
07 17:15 SW 10 10.00 Overcast BKN070 OVC090 55.4 32 41% 29.86 0.0
07 16:55 W 12 10.00 Mostly Cloudy BKN080 57.2 32 39% 29.87 0.0
07 16:35 W 15 G 24 10.00 A Few Clouds FEW075 FEW090 57.2 32 39% 29.87 0.0
07 16:15 W 14 G 17 10.00 Partly Cloudy SCT075 57.2 32 39% 29.88 0.0
07 15:55 W 14 G 18 10.00 Fair CLR 57.2 32 39% 29.89 0.0
07 15:35 W 12 10.00 Fair CLR 57.2 33.8 41% 29.9 0.0
07 15:15 W 12 G 22 10.00 Fair CLR 55.4 32 41% 29.9 0.0
07 14:55 NW 14 G 21 10.00 Fair CLR 55.4 32 41% 29.91 0.0
07 14:35 W 12 10.00 Fair CLR 55.4 32 41% 29.92 0.0
07 14:15 W 9 G 18 10.00 A Few Clouds FEW065 53.6 32 44% 29.92 0.0
07 13:55 NW 10 10.00 Partly Cloudy SCT065 53.6 32 54.1 41.2 44% 29.93 0.0
07 13:35 N 12 G 18 10.00 Fair CLR 53.6 32 44% 29.93 0.0
07 13:15 NW 10 G 22 10.00 A Few Clouds FEW080 53.6 32 44% 29.94 0.0
07 12:55 NW 10 10.00 Fair CLR 51.8 32 47% 29.96 0.0
07 12:35 NW 7 G 20 10.00 Partly Cloudy SCT075 51.8 30.2 44% 29.96 0.0
07 12:15 NW 17 10.00 Mostly Cloudy BKN075 51.8 32 47% 29.97 0.0
07 11:55 W 20 10.00 Partly Cloudy SCT075 51.8 32 47% 29.97 0.0
07 11:35 NW 9 10.00 Fair CLR 50 32 50% 47 29.96 0.0
07 11:15 NW 12 10.00 Fair CLR 50 32 50% 46 29.96 0.0
07 10:55 NW 12 G 18 10.00 Fair CLR 50 32 50% 46 29.96 0.0
07 10:35 W 9 G 16 10.00 Fair CLR 48.2 32 54% 45 29.96 0.0
07 10:15 W 10 G 17 10.00 Fair CLR 48.2 30.2 50% 44 29.96 0.0
07 09:55 W 9 10.00 Fair CLR 46.4 30.2 53% 42 29.96 0.0
07 09:35 W 14 10.00 Fair CLR 46.4 30.2 53% 41 29.97 0.0
07 09:15 W 9 10.00 Fair CLR 46.4 32 57% 42 29.96 0.0
07 08:55 NW 10 10.00 Fair CLR 44.6 32 61% 40 29.96 0.0
07 08:35 W 14 10.00 Fair CLR 44.6 32 61% 39 29.96 0.0
07 08:15 W 9 10.00 Fair CLR 42.8 32 66% 38 29.96 0.0
07 07:55 W 9 10.00 Fair CLR 41 33.8 44.6 35.4 76% 36 29.96 0.0
07 07:35 W 7 10.00 Fair CLR 39.2 32 75% 35 29.96 0.0
07 07:15 SW 2 10.00 Fair CLR 37.4 30.2 75% 29.95 0.0
07 06:55 Vrbl 1 10.00 Fair CLR 35.6 30.2 81% 29.94 0.0
07 06:35 W 3 10.00 Fair CLR 37.4 30.2 75% 29.94 0.0
07 06:15 W 3 10.00 Fair CLR 37.4 30.2 75% 29.94 0.0
07 05:55 W 3 10.00 Fair CLR 37.4 30.2 75% 29.93 0.0
07 05:35 NW 3 10.00 Fair CLR 37.4 30.2 75% 29.93 0.0
07 05:15 NW 6 10.00 Fair CLR 37.4 30.2 75% 33 29.94 0.0
07 04:55 NW 7 10.00 Fair CLR 39.2 30.2 70% 35 29.93 0.0
07 04:35 NW 8 10.00 Fair CLR 39.2 30.2 70% 34 29.93 0.0
07 04:15 NW 8 10.00 Fair CLR 41 30.2 66% 36 29.94 0.0
07 03:55 NW 9 10.00 Fair CLR 41 32 70% 36 29.93 0.0
07 03:35 NW 9 10.00 Fair CLR 42.8 32 66% 38 29.93 0.0
07 03:15 W 9 10.00 Partly Cloudy SCT070 42.8 32 66% 38 29.93 0.0
07 02:55 W 8 10.00 Overcast OVC070 42.8 32 66% 39 29.93 0.0
07 02:35 W 12 10.00 Overcast OVC070 44.6 32 61% 39 29.93 0.0
07 02:15 W 9 10.00 Overcast OVC070 44.6 33.8 66% 40 29.93 0.0
07 01:55 W 10 10.00 Overcast OVC070 44.6 33.8 50.7 41.7 66% 40 29.94 0.0
07 01:35 W 8 10.00 Overcast OVC080 42.8 33.8 71% 39 29.94 0.0
07 01:15 W 8 10.00 Mostly Cloudy BKN080 42.8 33.8 71% 39 29.94 0.0
07 00:55 W 7 10.00 Mostly Cloudy BKN080 42.8 32 66% 39 29.94 0.0
07 00:35 W 5 10.00 Mostly Cloudy BKN080 42.8 33.8 71% 41 29.93 0.0
07 00:15 W 5 10.00 A Few Clouds FEW090 42.8 33.8 71% 41 29.94 0.0
06 23:55 W 3 10.00 Mostly Cloudy BKN090 44.6 33.8 66% 29.94 0.0
06 23:35 W 3 10.00 Overcast OVC090 46.4 33.8 62% 29.93 0.0
06 23:15 W 3 10.00 Overcast OVC090 46.4 35.6 66% 29.93 0.0
06 22:55 NW 2 10.00 Overcast OVC090 46.4 33.8 62% 29.93 0.0
06 22:35 W 3 10.00 Overcast FEW075 OVC090 48.2 32 54% 29.93 0.0
06 22:15 W 1 10.00 Overcast FEW075 OVC090 48.2 30.2 50% 29.93 0.0
06 21:55 NW 1 10.00 Overcast SCT070 OVC090 48.2 33.8 58% 29.92 0.0
06 21:35 W 2 10.00 Overcast FEW075 OVC090 48.2 33.8 58% 29.92 0.0
06 21:15 W 3 10.00 Overcast SCT080 OVC090 50 30.2 47% 29.92 0.0
06 20:55 W 3 10.00 Overcast OVC085 50 30.2 47% 29.91 0.0
06 20:35 W 6 10.00 Overcast OVC085 48.2 33.8 58% 46 29.91 0.0
06 20:15 W 6 10.00 Overcast SCT070 OVC085 48.2 33.8 58% 46 29.91 0.0
06 19:55 W 9 10.00 Overcast FEW070 OVC085 50 32 55.8 50.2 50% 47 29.91 0.0
06 19:35 Vrbl 7 10.00 Overcast OVC085 50 32 50% 48 29.91 0.0
06 19:15 W 14 10.00 Overcast FEW075 OVC085 51.8 30.2 44% 29.91 0.0
06 18:55 W 16 10.00 Overcast SCT075 OVC085 51.8 30.2 44% 29.91 0.0
06 18:35 W 13 G 18 10.00 Partly Cloudy FEW075 SCT085 53.6 30.2 41% 29.91 0.0
06 18:15 W 12 G 22 10.00 Partly Cloudy SCT070 SCT085 53.6 30.2 41% 29.91 0.0
06 17:55 NW 13 10.00 Partly Cloudy SCT070 53.6 28.4 38% 29.91 0.0
06 17:35 NW 16 G 23 10.00 Mostly Cloudy BKN075 53.6 28.4 38% 29.91 0.0
06 17:15 W 16 G 21 10.00 Mostly Cloudy BKN075 55.4 30.2 38% 29.91 0.0
06 16:55 W 16 G 22 10.00 Mostly Cloudy BKN075 53.6 30.2 41% 29.92 0.0
06 16:35 NW 12 G 21 10.00 Partly Cloudy SCT065 53.6 28.4 38% 29.92 0.0
06 16:15 NW 15 G 23 10.00 Mostly Cloudy BKN065 53.6 28.4 38% 29.92 0.0
06 15:55 W 12 10.00 Mostly Cloudy BKN065 53.6 30.2 41% 29.92 0.0
06 15:35 NW 15 10.00 Mostly Cloudy BKN065 53.6 30.2 41% 29.92 0.0
06 15:15 W 12 G 20 10.00 Partly Cloudy SCT065 55.4 32 41% 29.92 0.0
06 14:55 W 13 G 20 10.00 A Few Clouds FEW065 55.4 32 41% 29.92 0.0
06 14:35 W 12 G 21 10.00 A Few Clouds FEW065 55.4 32 41% 29.92 0.0
06 14:15 NW 12 G 18 10.00 Partly Cloudy SCT065 53.6 30.2 41% 29.92 0.0
06 13:55 NW 13 G 18 10.00 Mostly Cloudy BKN065 53.6 32 54.3 41.5 44% 29.92 0.0
06 13:35 NW 15 G 20 10.00 Partly Cloudy SCT065 53.6 30.2 41% 29.92 0.0
06 13:15 W 9 10.00 A Few Clouds FEW065 53.6 32 44% 29.92 0.0
06 12:55 NW 8 G 17 10.00 A Few Clouds FEW065 53.6 28.4 38% 29.92 0.0
06 12:35 NW 7 10.00 Fair CLR 51.8 30.2 44% 29.93 0.0
06 12:15 NW 10 G 20 10.00 Fair CLR 53.6 30.2 41% 29.93 0.0
06 11:55 NW 10 10.00 Fair CLR 51.8 28.4 41% 29.93 0.0
06 11:35 NW 8 10.00 Fair CLR 51.8 28.4 41% 29.93 0.0
06 11:15 N 5 10.00 Fair CLR 50 26.6 40% 49 29.93 0.0
06 10:55 NW 9 10.00 Fair CLR 50 26.6 40% 47 29.93 0.0
06 10:35 Vrbl 3 10.00 Fair CLR 48.2 26.6 43% 29.93 0.0
06 10:15 NW 8 10.00 Fair CLR 48.2 24.8 40% 45 29.92 0.0
06 09:55 Vrbl 5 10.00 Fair CLR 48.2 26.6 43% 47 29.91 0.0
06 09:35 N 9 10.00 Fair CLR 48.2 26.6 43% 45 29.91 0.0
06 09:15 N 9 10.00 Fair CLR 48.2 28.4 46% 45 29.9 0.0
06 08:55 N 8 10.00 Fair CLR 46.4 28.4 50% 43 29.9 0.0
06 08:35 N 6 10.00 Fair CLR 44.6 30.2 57% 42 29.9 0.0
06 08:15 NW 7 10.00 Fair CLR 42.8 30.2 61% 39 29.89 0.0
06 07:55 N 5 10.00 Fair CLR 42.8 32 46.4 36.9 66% 41 29.88 0.0
06 07:35 NW 2 10.00 Fair CLR 39.2 33.8 81% 29.87 0.0
06 07:15 N 2 10.00 Fair CLR 39.2 32 75% 29.86 0.0
06 06:55 NW 2 10.00 Fair CLR 37.4 32 81% 29.86 0.0
06 06:35 NW 3 10.00 Fair CLR 39.2 32 75% 29.85 0.0
06 06:15 NW 3 10.00 Fair CLR 37.4 32 81% 29.85 0.0
06 05:55 NW 2 10.00 Fair CLR 41 32 70% 29.84 0.0
06 05:35 NW 3 10.00 Fair CLR 39.2 32 75% 29.84 0.0
06 05:15 NW 5 10.00 Fair CLR 39.2 32 75% 36 29.84 0.0
06 04:55 NW 6 10.00 Fair CLR 41 32 70% 38 29.83 0.0
06 04:35 Vrbl 5 10.00 Fair CLR 42.8 32 66% 41 29.82 0.0
06 04:15 N 5 10.00 Fair CLR 44.6 32 61% 43 29.82 0.0
06 03:55 N 7 10.00 A Few Clouds FEW100 44.6 32 61% 41 29.82 0.0
06 03:35 N 7 10.00 Mostly Cloudy BKN110 46.4 32 57% 43 29.82 0.0
06 03:15 N 5 10.00 Mostly Cloudy BKN120 46.4 35.6 66% 45 29.82 0.0
06 02:55 NW 5 10.00 Mostly Cloudy BKN120 46.4 37.4 71% 45 29.82 0.0
06 02:35 NW 5 10.00 Partly Cloudy SCT120 46.4 37.4 71% 45 29.82 0.0
06 02:15 NW 3 10.00 Overcast OVC120 46.4 39.2 76% 29.82 0.0
06 01:55 NW 2 10.00 Overcast OVC120 44.6 41 49.8 45.1 87% 29.83 0.0
06 01:35 W 3 10.00 Overcast SCT100 OVC120 44.6 41 87% 29.83 0.0
06 01:15 NW 2 10.00 Overcast BKN100 OVC120 44.6 41 87% 29.83 0.0
06 00:55 W 3 10.00 Mostly Cloudy BKN090 46.4 41 82% 29.83 0.0
06 00:35 W 3 10.00 Mostly Cloudy BKN100 46.4 41 82% 29.82 0.0
06 00:15 Calm 10.00 Overcast OVC110 46.4 42.8 87% 29.81 0.0
05 23:55 NW 2 10.00 Mostly Cloudy BKN110 46.4 39.2 76% 29.81 0.0
05 23:35 W 1 10.00 Fair CLR 46.4 41 82% 29.81 0.0
05 23:15 Calm 10.00 Fair CLR 46.4 42.8 87% 29.81 0.0
05 22:55 SW 1 10.00 Partly Cloudy SCT110 46.4 39.2 76% 29.81 0.0
05 22:35 Calm 10.00 Overcast OVC100 46.4 41 82% 29.81 0.0
05 22:15 W 2 10.00 Overcast OVC100 46.4 41 82% 29.81 0.0
05 21:55 S 1 10.00 Overcast OVC090 46.4 39.2 76% 29.8 0.0
05 21:35 Calm 10.00 Overcast OVC090 48.2 39.2 71% 29.79 0.0
05 21:15 N 1 10.00 Overcast OVC090 48.2 35.6 62% 29.79 0.0
05 20:55 N 1 10.00 Overcast OVC090 50 33.8 54% 29.78 0.0
05 20:35 N 3 10.00 Mostly Cloudy BKN090 50 32 50% 29.78 0.0
05 20:15 N 2 10.00 Partly Cloudy SCT090 50 32 50% 29.78 0.0
05 19:55 NW 3 10.00 Mostly Cloudy BKN090 50 35.6 53.6 49.1 58% 29.78 0.0
05 19:35 W 2 10.00 Overcast OVC100 50 35.6 58% 29.79 0.0
05 19:15 NW 3 10.00 Overcast OVC100 50 33.8 54% 29.79 0.0
05 18:55 NW 6 10.00 Overcast OVC110 50 32 50% 48 29.79 0.0
05 18:35 NW 7 10.00 Mostly Cloudy BKN110 50 32 50% 48 29.79 0.0
05 18:15 NW 7 10.00 Partly Cloudy SCT120 50 32 50% 48 29.79 0.0
05 17:55 NW 8 10.00 Partly Cloudy SCT120 50 32 50% 47 29.79 0.0
05 17:35 W 10 10.00 Mostly Cloudy SCT090 BKN120 50 32 50% 46 29.79 0.0
05 17:15 W 12 10.00 A Few Clouds FEW090 50 30.2 47% 46 29.79 0.0
05 16:55 W 10 10.00 Partly Cloudy FEW080 SCT095 50 30.2 47% 46 29.78 0.0
05 16:35 NW 10 10.00 Mostly Cloudy BKN080 51.8 28.4 41% 29.79 0.0
05 16:15 NW 12 10.00 Overcast OVC080 51.8 32 47% 29.79 0.0
05 15:55 NW 14 10.00 Overcast BKN070 OVC090 51.8 33.8 50% 29.79 0.0
05 15:35 NW 10 G 16 10.00 Mostly Cloudy BKN080 BKN090 53.6 35.6 51% 29.8 0.0
05 15:15 W 8 10.00 Overcast OVC080 51.8 35.6 54% 29.79 0.0
05 14:55 W 8 10.00 Overcast OVC070 51.8 37.4 58% 29.79 0.0
05 14:35 NW 8 10.00 Overcast OVC080 51.8 35.6 54% 29.79 0.0
05 14:15 NW 10 10.00 Overcast OVC080 51.8 35.6 54% 29.79 0.0
05 13:55 W 14 G 20 10.00 Overcast OVC080 51.8 35.6 53.6 44.2 54% 29.79 0.0
05 13:35 W 10 10.00 Mostly Cloudy BKN090 53.6 37.4 54% 29.78 0.0
05 13:15 W 10 10.00 Overcast OVC090 51.8 37.4 58% 29.78 0.0
05 12:55 W 7 10.00 Overcast OVC090 50 39.2 67% 48 29.78 0.0
05 12:35 NW 8 10.00 Mostly Cloudy BKN090 50 39.2 67% 47 29.77 0.0
05 12:15 NW 7 10.00 Partly Cloudy FEW050 SCT100 48.2 39.2 71% 46 29.77 0.0
05 11:55 NW 9 10.00 Mostly Cloudy FEW049 FEW075 BKN120 46.4 41 82% 42 29.78 0.0
05 11:35 NW 6 10.00 Light Rain FEW039 BKN090 BKN120 44.6 39.2 81% 42 29.77 0.0
05 11:15 NW 12 10.00 Light Rain FEW065 OVC090 44.6 41 87% 39 29.79 0.0
05 10:55 W 9 8.00 Light Rain FEW065 OVC075 44.6 42.8 93% 40 29.8 0.0 0.02
05 10:35 W 8 6.00 Light Rain Fog/Mist SCT065 OVC075 44.6 42.8 93% 41 29.79 0.0
05 10:15 NW 9 6.00 Light Rain Fog/Mist OVC070 44.6 41 87% 40 29.78 0.0
05 09:55 NW 9 10.00 Light Rain BKN070 OVC080 46.4 39.2 76% 42 29.77 0.0
05 09:35 NW 13 10.00 Overcast OVC080 48.2 41 76% 43 29.76 0.0
05 09:15 NW 14 10.00 Overcast OVC090 50 39.2 67% 45 29.74 0.0
05 08:55 NW 12 10.00 Overcast OVC090 50 39.2 67% 46 29.72 0.0
Date Time (edt) Wind (mph) Vis. (mi.) Weather Sky Cond. Air Dwpt Max. Min. Relative Humidity Wind Chill (°F) Heat Index (°F) altimeter (in) sea level (mb) 1 hr 3 hr 6 hr
6 hour
Temperature (ºF) Pressure Precipitation (in)